• Join FlightAware (Why Join?)
  • Login
  • US Flag 
02:40AM EDT


 

Airport Tracker/Info


-or-


 

Live Flight TrackerFlight Track Log ✈ N26LJ ✈ 15-Jul-2013 ✈ KWWD - KSMQ

Flight Track Log - Related Links

Times and Time Zones

All times are in EDT time to prevent confusion due to time zone crossing. See the N26LJ flight status page for this flight to view local times or setup timezone preferences in your user account.

Time Position Orientation Groundspeed Altitude Reporting Facility
EDT Latitude Longitude Course Direction KTS MPH feet Rate Location/Type
08:19AM 39.0080 -74.9300 283° West 128 147  Level FlightAware
08:19AM 39.0120 -74.9350 316° Northwest 136 157 200 1,320 Climbing FlightAware
08:20AM 39.0390 -74.9290 10° North 141 162 1,200 1,140 Climbing FlightAware
08:20AM 39.0590 -74.9210 17° North 150 173 1,600 480 Climbing FlightAware
08:21AM 39.0690 -74.9180 13° North 165 190 1,600 120 Level FlightAware
08:21AM 39.0890 -74.9130 11° North 165 190 1,700 180 Climbing FlightAware
08:21AM 39.1130 -74.9080 North 168 193 1,800  Climbing FlightAware
08:22AM 39.1380 -74.9030 North 167 192 1,700 -120 Descending FlightAware
08:22AM 39.1580 -74.9010 North 179 206 1,700  Level FlightAware
08:23AM 39.1980 -74.8970 North 182 209 1,700 -120 Level FlightAware
08:24AM 39.2222 -74.8947 North 1,800 -180 Climbing FlightAware ADS-B
08:24AM 39.2409 -74.8942 North 182 209 1,600 -240 Descending FlightAware ADS-B
08:24AM 39.2479 -74.8938 North 190 219 1,700 540 Climbing FlightAware ADS-B
08:24AM 39.2601 -74.8919 North 182 209 1,800 120 Climbing FlightAware ADS-B
08:25AM 39.2864 -74.8892 North 183 211 1,800 -180 Level FlightAware ADS-B
08:25AM 39.3002 -74.8872 North 183 211 1,700 -240 Descending FlightAware ADS-B
08:25AM 39.3135 -74.8850 North 187 215 1,700  Level FlightAware ADS-B
08:26AM 39.3270 -74.8821 North 186 214 1,700 -180 Level FlightAware ADS-B
08:26AM 39.3425 -74.8789 North 189 217 1,600 -180 Descending FlightAware ADS-B
08:26AM 39.3569 -74.8763 North 188 216 1,600  Level FlightAware ADS-B
08:27AM 39.3864 -74.8719 North 185 213 1,600  Level FlightAware ADS-B
08:27AM 39.4005 -74.8701 North 185 213 1,600 120 Level FlightAware ADS-B
08:28AM 39.4230 -74.8672 North 184 212 1,700 120 Climbing FlightAware ADS-B
08:28AM 39.4338 -74.8656 North 183 211 1,700  Level FlightAware ADS-B
08:28AM 39.4470 -74.8643 North 184 212 1,700 -240 Level FlightAware ADS-B
08:28AM 39.4600 -74.8627 North 186 214 1,600  Descending FlightAware ADS-B
08:29AM 39.4826 -74.8599 North 186 214 1,700  Climbing FlightAware ADS-B
08:29AM 39.5004 -74.8576 North 187 215 1,600 -180 Descending FlightAware ADS-B
08:29AM 39.5132 -74.8560 North 187 215 1,600 120 Level FlightAware ADS-B
08:30AM 39.5293 -74.8541 North 183 211 1,700 120 Climbing FlightAware ADS-B
08:30AM 39.5423 -74.8526 North 184 212 1,700  Level FlightAware ADS-B
08:30AM 39.5640 -74.8508 North 184 212 1,700  Level FlightAware ADS-B
08:31AM 39.5820 -74.8484 North 184 212 1,700  Level FlightAware ADS-B
08:31AM 39.5913 -74.8462 10° North 184 212 1,700  Level FlightAware ADS-B
08:31AM 39.5997 -74.8442 10° North 186 214 1,700  Level FlightAware ADS-B
08:31AM 39.6096 -74.8419 10° North 183 211 1,700 180 Level FlightAware ADS-B
08:31AM 39.6229 -74.8398 North 184 212 1,800  Climbing FlightAware ADS-B
08:32AM 39.6370 -74.8374 North 186 214 1,700  Descending FlightAware ADS-B
08:32AM 39.6477 -74.8356 North 184 212 1,800 120 Climbing FlightAware ADS-B
08:32AM 39.6660 -74.8332 North 184 212 1,800  Level FlightAware ADS-B
08:33AM 39.6782 -74.8318 North 185 213 1,800  Level FlightAware ADS-B
08:33AM 39.6855 -74.8293 15° North 189 217 1,800  Level FlightAware ADS-B
08:33AM 39.6898 -74.8258 32° Northeast 192 221 1,800  Level FlightAware ADS-B
08:33AM 39.6923 -74.8220 49° Northeast 196 226 1,800  Level FlightAware ADS-B
08:33AM 39.7002 -74.8100 49° Northeast 194 223 1,800 -240 Level FlightAware ADS-B
08:33AM 39.7087 -74.8045 26° Northeast 189 217 1,700 -1,080 Descending FlightAware ADS-B
08:33AM 39.7134 -74.8036 North 194 223 1,500 540 Descending FlightAware ADS-B
08:34AM 39.7271 -74.8028 North 175 201 1,900 420 Climbing FlightAware ADS-B
08:34AM 39.7360 -74.8032 358° North 183 211 1,700 -720 Descending FlightAware ADS-B
08:34AM 39.7432 -74.8033 359° North 188 216 1,700  Level FlightAware ADS-B
08:34AM 39.7472 -74.8025 North 189 217 1,700  Level FlightAware ADS-B
08:34AM 39.7524 -74.8011 12° North 184 212 1,700 360 Level FlightAware ADS-B
08:34AM 39.7593 -74.8003 North 181 208 1,800 240 Climbing FlightAware ADS-B
08:35AM 39.7728 -74.7987 North 185 213 1,800 -300 Level FlightAware ADS-B
08:35AM 39.7801 -74.7978 North 186 214 1,700 -300 Descending FlightAware ADS-B
08:35AM 39.7931 -74.7952 North 189 217 1,700  Level FlightAware ADS-B
08:35AM 39.8059 -74.7923 10° North 186 214 1,700 180 Level FlightAware ADS-B
08:35AM 39.8178 -74.7892 11° North 184 212 1,800 240 Climbing FlightAware ADS-B
08:36AM 39.8245 -74.7869 15° North 185 213 1,800  Level FlightAware ADS-B
08:36AM 39.8359 -74.7817 19° North 187 215 1,800 -240 Level FlightAware ADS-B
08:36AM 39.8499 -74.7756 18° North 188 216 1,700 -300 Descending FlightAware ADS-B
08:36AM 39.8519 -74.7747 19° North 188 216 1,700  Level FlightAware ADS-B
08:36AM 39.8621 -74.7694 22° Northeast 188 216 1,700 180 Level FlightAware ADS-B
08:37AM 39.8748 -74.7634 20° North 187 215 1,800  Climbing FlightAware ADS-B
08:37AM 39.8889 -74.7579 17° North 188 216 1,700 -240 Descending FlightAware ADS-B
08:37AM 39.9004 -74.7540 15° North 188 216 1,700 180 Level FlightAware ADS-B
08:37AM 39.9128 -74.7488 18° North 185 213 1,800 180 Climbing FlightAware ADS-B
08:38AM 39.9219 -74.7447 19° North 187 215 1,800  Level FlightAware ADS-B
08:38AM 39.9248 -74.7435 18° North 187 215 1,800  Level FlightAware ADS-B
08:38AM 39.9295 -74.7423 11° North 184 212 1,800  Level FlightAware ADS-B
08:38AM 39.9378 -74.7402 11° North 184 212 1,800  Level FlightAware ADS-B
08:38AM 39.9496 -74.7369 12° North 184 212 1,800 -240 Level FlightAware ADS-B
08:38AM 39.9588 -74.7344 12° North 187 215 1,700 -240 Descending FlightAware ADS-B
08:39AM 39.9731 -74.7312 10° North 185 213 1,700 180 Level FlightAware ADS-B
08:39AM 39.9867 -74.7280 10° North 185 213 1,800  Climbing FlightAware ADS-B
08:39AM 39.9931 -74.7260 13° North 188 216 1,700 -480 Descending FlightAware ADS-B
08:39AM 39.9984 -74.7238 18° North 190 219 1,700  Level FlightAware ADS-B
08:39AM 40.0118 -74.7170 21° North 191 220 1,700  Level FlightAware ADS-B
08:40AM 40.0280 -74.7087 21° North 188 216 1,700  Level FlightAware ADS-B
08:40AM 40.0354 -74.7051 20° North 188 216 1,700  Level FlightAware ADS-B
08:40AM 40.0458 -74.7002 20° North 188 216 1,700  Level FlightAware ADS-B
08:40AM 40.0485 -74.6985 26° Northeast 189 217 1,700  Level FlightAware ADS-B
08:40AM 40.0637 -74.6884 27° Northeast 189 217 1,700  Level FlightAware ADS-B
08:41AM 40.0762 -74.6814 23° Northeast 189 217 1,700  Level FlightAware ADS-B
08:41AM 40.0894 -74.6743 22° Northeast 188 216 1,700  Level FlightAware ADS-B
08:41AM 40.0981 -74.6695 23° Northeast 188 216 1,700  Level FlightAware ADS-B
08:41AM 40.1100 -74.6630 23° Northeast 190 219 1,700  Level FlightAware ADS-B
08:42AM 40.1238 -74.6555 23° Northeast 189 217 1,700  Level FlightAware ADS-B
08:42AM 40.1366 -74.6485 23° Northeast 188 216 1,700  Level FlightAware ADS-B
08:42AM 40.1500 -74.6407 24° Northeast 188 216 1,700  Level FlightAware ADS-B
08:42AM 40.1573 -74.6363 25° Northeast 190 219 1,700  Level FlightAware ADS-B
08:43AM 40.1710 -74.6278 25° Northeast 189 217 1,700  Level FlightAware ADS-B
08:43AM 40.1864 -74.6188 24° Northeast 188 216 1,700  Level FlightAware ADS-B
08:43AM 40.1971 -74.6135 21° North 191 220 1,700  Level FlightAware ADS-B
08:43AM 40.2084 -74.6078 21° North 190 219 1,700  Level FlightAware ADS-B
08:44AM 40.2225 -74.5999 23° Northeast 189 217 1,700  Level FlightAware ADS-B
08:44AM 40.2346 -74.5934 22° Northeast 188 216 1,700  Level FlightAware ADS-B
08:44AM 40.2468 -74.5867 23° Northeast 191 220 1,700  Level FlightAware ADS-B
08:44AM 40.2578 -74.5806 23° Northeast 189 217 1,700  Level FlightAware ADS-B
08:45AM 40.2676 -74.5754 22° Northeast 189 217 1,700  Level FlightAware ADS-B
08:45AM 40.2837 -74.5648 27° Northeast 191 220 1,700  Level FlightAware ADS-B
08:45AM 40.2905 -74.5611 23° Northeast 189 217 1,700  Level FlightAware ADS-B
08:46AM 40.3150 -74.5480 22° Northeast 187 215 1,700  Level FlightAware
08:46AM 40.3340 -74.5370 24° Northeast 189 217 1,700  Level FlightAware
08:46AM 40.3448 -74.5317 21° North 186 214 1,700 720 Level FlightAware ADS-B
08:47AM 40.3591 -74.5223 27° Northeast 176 203 2,100 780 Climbing FlightAware ADS-B
08:47AM 40.3713 -74.5143 27° Northeast 176 203 2,200 120 Climbing FlightAware ADS-B
08:47AM 40.3838 -74.5063 26° Northeast 181 208 2,200 -180 Level FlightAware ADS-B
08:47AM 40.3970 -74.4986 24° Northeast 184 212 2,100 -360 Descending FlightAware ADS-B
08:48AM 40.4104 -74.4916 22° Northeast 190 219 2,000 -360 Descending FlightAware ADS-B
08:48AM 40.4268 -74.4829 22° Northeast 192 221 1,900 -180 Descending FlightAware ADS-B
08:49AM 40.4660 -74.4690 15° North 181 208 1,800 -240 Descending FlightAware
08:49AM 40.4760 -74.4760 332° Northwest 177 204 1,700 -240 Descending FlightAware
08:49AM 40.4844 -74.4830 328° Northwest 176 203 1,700  Level FlightAware ADS-B
08:49AM 40.4931 -74.4895 330° Northwest 171 197 1,700  Level FlightAware ADS-B
08:49AM 40.4953 -74.4911 331° Northwest 173 199 1,700  Level FlightAware ADS-B
08:50AM 40.5183 -74.5077 331° Northwest 166 191 1,700  Level FlightAware ADS-B
08:50AM 40.5222 -74.5105 331° Northwest 173 199 1,700  Level FlightAware ADS-B
08:50AM 40.5287 -74.5153 331° Northwest 149 171 1,700  Level FlightAware ADS-B
08:50AM 40.5320 -74.5178 330° Northwest 173 199 1,700  Level FlightAware ADS-B
08:51AM 40.5430 -74.5259 331° Northwest 142 163 1,700  Level FlightAware ADS-B
08:51AM 40.5655 -74.5424 331° Northwest 141 162 1,700  Level FlightAware ADS-B
08:52AM 40.5715 -74.5469 330° Northwest 138 159 1,700 -300 Level FlightAware ADS-B
08:52AM 40.5990 -74.5710 326° Northwest 143 165 1,400 -420 Descending FlightAware
08:53AM 40.6020 -74.5810 292° West 146 168 1,300 -360 Descending FlightAware
08:53AM 40.6100 -74.6100 290° West 131 151 1,100 -300 Descending FlightAware
08:56AM 40.6167 -74.6667 North  Level FlightAware Approximate
08:57AM 40.6260 -74.6702 North  Level Estimated
08:58AM 40.6260 -74.6702 North  Level Estimated
08:59AM 40.6260 -74.6702 North  Level Estimated
09:00AM 40.6260 -74.6702 North  Level Estimated
09:01AM 40.6260 -74.6702 North  Level Estimated
09:02AM 40.6260 -74.6702 North  Level Estimated
09:03AM 40.6260 -74.6702 North  Level Estimated
09:04AM 40.6260 -74.6702 North  Level Estimated
09:05AM 40.6260 -74.6702 North  Level Estimated
09:06AM 40.6260 -74.6702 North  Level Estimated
09:07AM 40.6260 -74.6702 North  Level Estimated
09:08AM 40.6260 -74.6702 North  Level Estimated
09:09AM 40.6260 -74.6702 North  Level Estimated
09:10AM 40.6260 -74.6702 North  Level Estimated
09:11AM 40.6260 -74.6702 North  Level Estimated
09:12AM 40.6260 -74.6702 North  Level Estimated
09:13AM 40.6260 -74.6702 North  Level Estimated
09:14AM 40.6260 -74.6702 North  Level Estimated
09:15AM 40.6260 -74.6702 North  Level Estimated